createdAt,value
2022-10-15T00:09:06.137Z,18.0
2022-10-15T00:14:12.355Z,18.0
2022-10-15T00:19:18.562Z,16.0
2022-10-15T00:24:24.769Z,14.0
2022-10-15T00:29:30.984Z,15.0
2022-10-15T00:34:37.189Z,16.0
2022-10-15T00:39:43.408Z,15.5
2022-10-15T00:44:49.600Z,15.0
2022-10-15T00:49:55.819Z,16.0
2022-10-15T00:55:02.020Z,16.0
2022-10-15T01:00:08.225Z,16.0
2022-10-15T01:05:14.433Z,16.0
2022-10-15T01:10:20.660Z,16.0
2022-10-15T01:15:26.847Z,19.0
2022-10-15T01:20:33.056Z,19.0
2022-10-15T01:25:39.303Z,21.0
2022-10-15T01:30:45.482Z,23.5
2022-10-15T01:35:50.711Z,25.0
2022-10-15T01:40:56.953Z,26.0
2022-10-15T01:46:02.170Z,30.0
2022-10-15T01:51:08.384Z,31.0
2022-10-15T01:56:14.577Z,32.0
2022-10-15T02:01:20.824Z,32.0
2022-10-15T02:06:26.993Z,33.5
2022-10-15T02:11:33.192Z,33.0
2022-10-15T02:16:39.405Z,32.0
2022-10-15T02:26:51.820Z,30.5
2022-10-15T02:31:58.028Z,29.0
2022-10-15T02:37:04.249Z,30.0
2022-10-15T02:47:16.743Z,28.5
2022-10-15T02:52:22.454Z,27.0
2022-10-15T02:57:34.241Z,27.0
2022-10-15T03:02:46.572Z,28.0
2022-10-15T03:07:58.893Z,28.0
2022-10-15T03:13:11.231Z,28.0
2022-10-15T03:18:23.559Z,28.0
2022-10-15T03:23:35.052Z,28.0
2022-10-15T03:28:41.207Z,27.5
2022-10-15T03:33:47.348Z,25.0
2022-10-15T03:38:53.565Z,27.0
2022-10-15T03:43:59.778Z,26.5
2022-10-15T03:49:05.981Z,27.0
2022-10-15T03:54:12.203Z,27.0
2022-10-15T03:59:18.409Z,28.0
2022-10-15T04:04:24.629Z,28.0
2022-10-15T04:09:30.832Z,29.0
2022-10-15T04:14:37.046Z,28.0
2022-10-15T04:19:43.260Z,30.0
2022-10-15T04:24:49.473Z,29.0
2022-10-15T04:29:55.686Z,29.0
2022-10-15T04:35:01.905Z,29.0
2022-10-15T04:40:08.119Z,29.0
2022-10-15T04:45:14.387Z,29.0
2022-10-15T04:50:20.533Z,29.0
2022-10-15T04:55:26.758Z,29.0
2022-10-15T05:00:32.969Z,28.0
2022-10-15T05:05:39.183Z,30.0
2022-10-15T05:10:44.425Z,30.0
2022-10-15T05:15:50.636Z,32.0
2022-10-15T05:20:55.875Z,32.0
2022-10-15T05:26:02.101Z,35.0
2022-10-15T05:31:08.314Z,35.0
2022-10-15T05:36:14.526Z,33.0
2022-10-15T05:41:20.738Z,34.0
2022-10-15T05:46:26.944Z,33.0
2022-10-15T05:51:33.161Z,34.0
2022-10-15T05:56:39.381Z,31.0
2022-10-15T06:01:45.637Z,31.0
2022-10-15T06:06:51.805Z,30.0
2022-10-15T06:11:58.032Z,30.0
2022-10-15T06:17:04.235Z,28.0
2022-10-15T06:22:10.452Z,27.0
2022-10-15T06:27:16.660Z,26.0
2022-10-15T06:32:22.875Z,26.0
2022-10-15T06:37:29.076Z,26.0
2022-10-15T06:42:35.288Z,25.0
2022-10-15T06:47:41.502Z,24.0
2022-10-15T06:52:47.763Z,23.0
2022-10-15T06:57:53.927Z,23.0
2022-10-15T07:03:00.154Z,23.0
2022-10-15T07:08:05.385Z,24.0
2022-10-15T07:13:11.597Z,23.0
2022-10-15T07:23:25.619Z,23.0
2022-10-15T07:28:28.292Z,23.0
2022-10-15T07:33:34.507Z,23.0
2022-10-15T07:38:40.713Z,22.0
2022-10-15T07:43:46.907Z,23.0
2022-10-15T07:48:53.150Z,23.0
2022-10-15T07:53:59.318Z,23.0
2022-10-15T07:59:05.528Z,23.0
2022-10-15T08:04:11.736Z,23.0
2022-10-15T08:09:17.950Z,23.0
2022-10-15T08:14:24.152Z,23.0
2022-10-15T08:19:30.360Z,22.0
2022-10-15T08:24:36.584Z,22.0
2022-10-15T08:29:42.774Z,22.0
2022-10-15T08:34:48.986Z,21.0
2022-10-15T08:39:55.193Z,19.0
2022-10-15T08:45:01.399Z,17.0
2022-10-15T08:50:07.609Z,15.0
2022-10-15T08:55:13.894Z,13.0
2022-10-15T09:00:20.037Z,12.0
2022-10-15T09:05:26.233Z,12.0
2022-10-15T09:10:32.448Z,11.0
2022-10-15T09:15:37.682Z,11.0
2022-10-15T09:20:44.133Z,10.0
2022-10-15T09:25:50.096Z,10.0
2022-10-15T09:30:56.308Z,9.0
2022-10-15T09:36:01.561Z,9.0
2022-10-15T09:46:13.954Z,9.0
2022-10-15T09:51:20.161Z,10.0
2022-10-15T09:56:26.374Z,11.0
2022-10-15T10:01:32.578Z,11.0
2022-10-15T10:06:38.792Z,11.0
2022-10-15T10:11:45.002Z,11.0
2022-10-15T10:16:51.205Z,10.0
2022-10-15T10:21:57.414Z,10.0
2022-10-15T10:32:09.832Z,9.0
2022-10-15T10:37:16.040Z,8.0
2022-10-15T10:42:22.251Z,7.0
2022-10-15T10:47:28.602Z,6.0
2022-10-15T10:52:34.680Z,6.0
2022-10-15T10:57:40.869Z,6.0
2022-10-15T11:02:47.082Z,5.0
2022-10-15T11:07:53.287Z,5.0
2022-10-15T11:12:59.572Z,4.0
2022-10-15T11:18:05.704Z,5.0
2022-10-15T11:23:10.947Z,5.0
2022-10-15T11:28:17.186Z,4.5
2022-10-15T11:33:23.371Z,5.0
2022-10-15T11:38:28.612Z,4.0
2022-10-15T11:43:34.819Z,4.0
2022-10-15T11:48:41.018Z,4.0
2022-10-15T11:53:47.230Z,4.0
2022-10-15T11:58:53.479Z,3.0
2022-10-15T12:03:59.709Z,3.0
2022-10-15T12:09:05.859Z,3.0
2022-10-15T12:14:12.062Z,3.0
2022-10-15T12:19:18.278Z,3.0
2022-10-15T12:24:24.479Z,3.0
2022-10-15T12:29:30.688Z,3.0
2022-10-15T12:34:36.897Z,3.0
2022-10-15T12:39:52.872Z,3.0
2022-10-15T12:44:49.316Z,3.0
2022-10-15T12:49:55.521Z,3.0
2022-10-15T12:55:02.758Z,3.0
2022-10-15T13:00:07.947Z,3.0
2022-10-15T13:05:14.148Z,3.0
2022-10-15T13:10:20.355Z,3.0
2022-10-15T13:15:26.565Z,2.0
2022-10-15T13:20:32.778Z,3.0
2022-10-15T13:25:38.008Z,3.0
2022-10-15T13:30:44.217Z,3.0
2022-10-15T13:35:50.431Z,3.0
2022-10-15T13:40:55.663Z,3.0
2022-10-15T13:46:01.883Z,2.5
2022-10-15T13:51:08.091Z,2.0
2022-10-15T13:56:14.290Z,2.0
2022-10-15T14:01:20.503Z,3.0
2022-10-15T14:06:26.721Z,4.0
2022-10-15T14:11:32.917Z,5.0
2022-10-15T14:16:39.134Z,5.0
2022-10-15T14:21:45.348Z,2.0
2022-10-15T14:26:51.538Z,1.0
2022-10-15T14:31:57.746Z,1.0
2022-10-15T14:37:04.008Z,1.0
2022-10-15T14:42:10.163Z,1.0
2022-10-15T14:47:16.376Z,0.0
2022-10-15T14:52:22.667Z,0.0
2022-10-15T14:57:28.803Z,0.0
2022-10-15T15:02:35.036Z,1.0
2022-10-15T15:07:41.202Z,0.0
2022-10-15T15:12:47.407Z,0.0
2022-10-15T15:17:53.617Z,0.0
2022-10-15T15:22:59.826Z,0.0
2022-10-15T15:28:05.059Z,0.0
2022-10-15T15:33:11.267Z,0.0
2022-10-15T15:38:16.504Z,0.0
2022-10-15T15:43:22.710Z,0.0
2022-10-15T15:48:27.941Z,0.0
2022-10-15T15:53:34.161Z,1.0
2022-10-15T15:58:40.353Z,1.0
2022-10-15T16:03:46.569Z,0.0
2022-10-15T16:08:52.790Z,1.0
2022-10-15T16:13:58.981Z,1.0
2022-10-15T16:19:05.188Z,1.0
2022-10-15T16:24:11.391Z,1.0
2022-10-15T16:29:17.598Z,1.0
2022-10-15T16:34:23.821Z,1.0
2022-10-15T16:39:30.048Z,1.0
2022-10-15T16:44:36.228Z,1.0
2022-10-15T16:49:42.462Z,1.0
2022-10-15T16:54:48.641Z,1.0
2022-10-15T16:59:54.858Z,1.0
2022-10-15T17:05:01.058Z,1.0
2022-10-15T17:10:10.798Z,1.0
2022-10-15T17:15:13.473Z,1.0
2022-10-15T17:20:19.687Z,1.0
2022-10-15T17:25:24.917Z,2.0
2022-10-15T17:30:31.134Z,1.0
2022-10-15T17:35:36.366Z,1.0
2022-10-15T17:40:42.620Z,2.0
2022-10-15T17:45:48.776Z,3.0
2022-10-15T17:50:54.991Z,2.0
2022-10-15T17:56:03.963Z,2.0
2022-10-15T18:01:07.399Z,2.0
2022-10-15T18:06:13.607Z,2.0
2022-10-15T18:11:19.814Z,2.0
2022-10-15T18:16:26.025Z,2.0
2022-10-15T18:21:32.235Z,6.0
2022-10-15T18:26:38.443Z,3.0
2022-10-15T18:31:44.654Z,3.0
2022-10-15T18:36:50.863Z,3.0
2022-10-15T18:41:57.077Z,2.0
2022-10-15T18:47:03.285Z,3.0
2022-10-15T18:52:21.434Z,3.0
2022-10-15T18:57:15.723Z,3.0
2022-10-15T19:02:21.920Z,2.0
2022-10-15T19:07:31.560Z,3.0
2022-10-15T19:12:34.338Z,3.0
2022-10-15T19:17:40.546Z,4.0
2022-10-15T19:22:45.791Z,4.0
2022-10-15T19:27:52.013Z,3.0
2022-10-15T19:32:57.255Z,4.0
2022-10-15T19:38:03.467Z,4.0
2022-10-15T19:43:09.670Z,4.0
2022-10-15T19:48:15.875Z,3.0
2022-10-15T19:53:22.099Z,3.0
2022-10-15T19:58:28.317Z,3.0
2022-10-15T20:08:40.734Z,3.0
2022-10-15T20:18:53.171Z,3.0
2022-10-15T20:23:59.373Z,3.0
2022-10-15T20:29:05.719Z,3.0
2022-10-15T20:34:11.810Z,3.0
2022-10-15T20:39:18.019Z,3.0
2022-10-15T20:44:24.360Z,3.0
2022-10-15T20:49:30.475Z,3.0
2022-10-15T20:54:36.670Z,3.0
2022-10-15T20:59:42.883Z,3.0
2022-10-15T21:04:49.096Z,3.0
2022-10-15T21:09:55.319Z,3.0
2022-10-15T21:15:01.538Z,3.0
2022-10-15T21:20:07.750Z,4.0
2022-10-15T21:25:13.966Z,3.0
2022-10-15T21:30:19.212Z,3.0
2022-10-15T21:35:25.422Z,4.0
2022-10-15T21:40:30.701Z,4.0
2022-10-15T21:45:36.863Z,4.0
2022-10-15T21:50:43.072Z,3.0
2022-10-15T21:55:49.299Z,3.0
2022-10-15T22:00:55.497Z,5.0
2022-10-15T22:06:01.716Z,5.0
2022-10-15T22:11:07.934Z,5.0
2022-10-15T22:16:14.142Z,4.0
2022-10-15T22:21:20.380Z,3.0
2022-10-15T22:26:26.577Z,3.0
2022-10-15T22:31:32.790Z,4.0
2022-10-15T22:36:39.036Z,4.0
2022-10-15T22:41:45.225Z,3.0
2022-10-15T22:46:51.445Z,5.0
2022-10-15T22:51:57.654Z,5.0
2022-10-15T22:57:03.885Z,4.0
2022-10-15T23:02:10.086Z,4.0
2022-10-15T23:07:16.303Z,4.0
2022-10-15T23:12:22.819Z,3.0
2022-10-15T23:17:28.736Z,2.0
2022-10-15T23:22:34.951Z,3.0
2022-10-15T23:27:40.186Z,3.0
2022-10-15T23:32:46.411Z,3.0
2022-10-15T23:37:52.616Z,3.0
2022-10-15T23:42:57.871Z,3.0
2022-10-15T23:48:04.071Z,3.0
2022-10-15T23:53:10.291Z,3.0
2022-10-15T23:58:16.501Z,4.0
